^^
Your Local Weather - Clay, NY Station Historical Data
Daily Summary for February 3, 2018 Units:  English    Metric   Both
« Previous Day
Next Day »
Daily Weekly Monthly Yearly Custom
  High: Low: Average:
Temperature: 30.1 °F 9.3 °F 19.5 °F
Dew Point: 18.7 °F 2.7 °F 9.4 °F
Humidity: 84% 47% 65%
Wind Speed: 6.0mph 0.0mph 3.1mph
Wind Gust: 13.0mph - -
Wind- - SW
Pressure: 30.28 in 30.04 in -
Precipitation: 0.01 in    
Historical Graphs
 
 
Tabular Data for February 3, 2018
Time Temperature Dew Point Pressure Wind Wind Speed Wind Gust Humidity Rainfall Rate (Hourly) solar
00:00 11.1 °F 7.2 °F 30.27 in WSW 2.0 mph 2.0 mph 84% 0.00 in 0 W/m2
00:06 11.1 °F 7.2 °F 30.27 in SW 1.0 mph 2.0 mph 84% 0.00 in 0 W/m2
00:12 11.1 °F 7.2 °F 30.26 in SW 1.0 mph 1.0 mph 84% 0.00 in 0 W/m2
00:18 11.0 °F 6.8 °F 30.26 in Calm   1.0 mph 83% 0.00 in 0 W/m2
00:24 10.8 °F 6.4 °F 30.26 in SW 1.0 mph 3.0 mph 82% 0.00 in 0 W/m2
00:30 10.6 °F 6.2 °F 30.26 in SW 1.0 mph 1.0 mph 82% 0.00 in 0 W/m2
00:36 10.4 °F 5.7 °F 30.26 in SW 1.0 mph 1.0 mph 81% 0.00 in 0 W/m2
00:42 10.3 °F 5.4 °F 30.26 in SW 1.0 mph 2.0 mph 80% 0.00 in 0 W/m2
00:48 10.2 °F 5.0 °F 30.25 in SSW 2.0 mph 3.0 mph 79% 0.00 in 0 W/m2
00:54 10.0 °F 4.5 °F 30.25 in SW 2.0 mph 2.0 mph 78% 0.00 in 0 W/m2
01:00 10.0 °F 4.2 °F 30.25 in WSW 1.0 mph 1.0 mph 77% 0.00 in 0 W/m2
01:06 9.9 °F 4.1 °F 30.25 in WSW 2.0 mph 2.0 mph 77% 0.00 in 0 W/m2
01:12 9.8 °F 3.7 °F 30.25 in SW 2.0 mph 2.0 mph 76% 0.00 in 0 W/m2
01:18 9.8 °F 3.5 °F 30.25 in WSW 2.0 mph 4.0 mph 75% 0.00 in 0 W/m2
01:24 9.7 °F 3.4 °F 30.25 in WSW 2.0 mph 4.0 mph 75% 0.00 in 0 W/m2
01:30 9.6 °F 3.3 °F 30.25 in WSW 2.0 mph 2.0 mph 75% 0.00 in 0 W/m2
01:36 9.5 °F 3.2 °F 30.25 in WSW 1.0 mph 4.0 mph 75% 0.00 in 0 W/m2
01:42 9.5 °F 3.2 °F 30.25 in SW 2.0 mph 4.0 mph 75% 0.00 in 0 W/m2
01:48 9.5 °F 3.2 °F 30.25 in WSW 2.0 mph 4.0 mph 75% 0.00 in 0 W/m2
01:54 9.4 °F 2.8 °F 30.24 in SW 1.0 mph 4.0 mph 74% 0.00 in 0 W/m2
02:00 9.3 °F 2.7 °F 30.24 in WSW 2.0 mph 2.0 mph 74% 0.00 in 0 W/m2
02:06 9.3 °F 2.7 °F 30.25 in WSW 1.0 mph 2.0 mph 74% 0.00 in 0 W/m2
02:12 9.3 °F 2.7 °F 30.24 in WSW 1.0 mph 1.0 mph 74% 0.00 in 0 W/m2
02:18 9.3 °F 2.7 °F 30.24 in WSW 1.0 mph 2.0 mph 74% 0.00 in 0 W/m2
02:24 9.4 °F 2.8 °F 30.24 in SW 2.0 mph 3.0 mph 74% 0.00 in 0 W/m2
02:30 9.5 °F 2.9 °F 30.24 in SW 1.0 mph 2.0 mph 74% 0.00 in 0 W/m2
02:36 9.6 °F 3.0 °F 30.24 in WSW 2.0 mph 3.0 mph 74% 0.00 in 0 W/m2
02:42 10.1 °F 3.8 °F 30.24 in SW 2.0 mph 2.0 mph 75% 0.00 in 0 W/m2
02:48 10.5 °F 3.8 °F 30.23 in SSW 3.0 mph 3.0 mph 74% 0.00 in 0 W/m2
02:54 10.8 °F 4.1 °F 30.23 in SW 3.0 mph 6.0 mph 74% 0.00 in 0 W/m2
03:00 11.0 °F 4.3 °F 30.23 in SSW 3.0 mph 7.0 mph 74% 0.00 in 0 W/m2
03:06 11.3 °F 4.6 °F 30.23 in WSW 3.0 mph 9.0 mph 74% 0.00 in 0 W/m2
03:12 11.5 °F 4.8 °F 30.23 in WSW 4.0 mph 6.0 mph 74% 0.00 in 0 W/m2
03:18 11.6 °F 4.9 °F 30.23 in SW 4.0 mph 6.0 mph 74% 0.00 in 0 W/m2
03:24 11.7 °F 5.3 °F 30.23 in WSW 3.0 mph 5.0 mph 75% 0.00 in 0 W/m2
03:30 11.7 °F 5.3 °F 30.23 in WSW 3.0 mph 3.0 mph 75% 0.00 in 0 W/m2
03:36 11.8 °F 5.4 °F 30.23 in SW 3.0 mph 5.0 mph 75% 0.00 in 0 W/m2
03:42 12.1 °F 6.0 °F 30.23 in SW 3.0 mph 5.0 mph 76% 0.00 in 0 W/m2
03:48 12.3 °F 6.2 °F 30.22 in SW 4.0 mph 6.0 mph 76% 0.00 in 0 W/m2
03:54 12.4 °F 6.3 °F 30.23 in West 4.0 mph 4.0 mph 76% 0.00 in 0 W/m2
04:00 12.5 °F 6.1 °F 30.23 in West 4.0 mph 4.0 mph 75% 0.00 in 0 W/m2
04:06 12.7 °F 6.3 °F 30.23 in SW 4.0 mph 8.0 mph 75% 0.00 in 0 W/m2
04:12 12.7 °F 6.3 °F 30.23 in SW 4.0 mph 8.0 mph 75% 0.00 in 0 W/m2
04:20 12.9 °F 6.5 °F 30.23 in West 4.0 mph 7.0 mph 75% 0.00 in 0 W/m2
04:26 13.1 °F 6.4 °F 30.23 in South 4.0 mph 7.0 mph 74% 0.00 in 0 W/m2
04:32 13.4 °F 6.7 °F 30.23 in SW 5.0 mph 6.0 mph 74% 0.00 in 0 W/m2
04:38 13.5 °F 6.5 °F 30.23 in WNW 4.0 mph 6.0 mph 73% 0.00 in 0 W/m2
04:44 13.5 °F 6.5 °F 30.23 in SW 4.0 mph 5.0 mph 73% 0.00 in 0 W/m2
04:50 13.5 °F 6.5 °F 30.24 in SW 4.0 mph 4.0 mph 73% 0.00 in 0 W/m2
04:56 13.5 °F 6.8 °F 30.24 in SW 4.0 mph 5.0 mph 74% 0.00 in 0 W/m2
05:02 13.7 °F 6.9 °F 30.24 in SW 4.0 mph 6.0 mph 74% 0.00 in 0 W/m2
05:08 13.9 °F 7.1 °F 30.25 in West 5.0 mph 7.0 mph 74% 0.00 in 0 W/m2
05:14 14.1 °F 7.0 °F 30.25 in SW 5.0 mph 7.0 mph 73% 0.00 in 0 W/m2
05:20 14.3 °F 7.2 °F 30.25 in WSW 5.0 mph 5.0 mph 73% 0.00 in 0 W/m2
05:26 14.1 °F 7.3 °F 30.25 in SW 5.0 mph 10.0 mph 74% 0.00 in 0 W/m2
05:32 13.7 °F 7.2 °F 30.25 in WSW 5.0 mph 5.0 mph 75% 0.00 in 0 W/m2
05:38 13.4 °F 7.0 °F 30.25 in SW 4.0 mph 5.0 mph 75% 0.00 in 0 W/m2
05:44 13.5 °F 7.3 °F 30.25 in South 5.0 mph 8.0 mph 76% 0.00 in 0 W/m2
05:50 13.6 °F 7.4 °F 30.25 in South 6.0 mph 6.0 mph 76% 0.00 in 0 W/m2
05:56 13.7 °F 7.8 °F 30.25 in SSW 6.0 mph 11.0 mph 77% 0.00 in 0 W/m2
06:02 14.0 °F 8.1 °F 30.25 in SSE 5.0 mph 9.0 mph 77% 0.00 in 0 W/m2
06:08 14.2 °F 8.0 °F 30.25 in SSW 5.0 mph 9.0 mph 76% 0.00 in 0 W/m2
06:14 14.3 °F 8.1 °F 30.26 in WSW 5.0 mph 5.0 mph 76% 0.00 in 0 W/m2
06:20 14.2 °F 8.0 °F 30.26 in NW 3.0 mph 3.0 mph 76% 0.00 in 0 W/m2
06:26 14.1 °F 8.2 °F 30.26 in SW 2.0 mph 4.0 mph 77% 0.00 in 0 W/m2
06:32 13.9 °F 8.0 °F 30.26 in SW 2.0 mph 3.0 mph 77% 0.00 in 0 W/m2
06:38 13.5 °F 7.6 °F 30.26 in SW 1.0 mph 3.0 mph 77% 0.00 in 0 W/m2
06:44 13.3 °F 7.7 °F 30.26 in SW 1.0 mph 2.0 mph 78% 0.00 in 0 W/m2
06:50 13.1 °F 7.5 °F 30.26 in SW 2.0 mph 2.0 mph 78% 0.00 in 0 W/m2
06:56 13.2 °F 7.9 °F 30.26 in SW 2.0 mph 4.0 mph 79% 0.00 in 0 W/m2
07:02 13.3 °F 8.0 °F 30.26 in SSW 2.0 mph 3.0 mph 79% 0.00 in 0 W/m2
07:08 13.4 °F 8.4 °F 30.26 in South 3.0 mph 3.0 mph 80% 0.00 in 0 W/m2
07:14 13.4 °F 8.4 °F 30.26 in SSW 2.0 mph 2.0 mph 80% 0.00 in 0 W/m2
07:20 13.4 °F 8.4 °F 30.26 in SSW 2.0 mph 4.0 mph 80% 0.00 in 9 W/m2
07:26 13.6 °F 8.9 °F 30.26 in SSW 2.0 mph 4.0 mph 81% 0.00 in 12 W/m2
07:32 13.7 °F 9.0 °F 30.26 in South 3.0 mph 3.0 mph 81% 0.00 in 14 W/m2
07:38 13.7 °F 9.0 °F 30.26 in South 1.0 mph 3.0 mph 81% 0.00 in 18 W/m2
07:44 13.7 °F 9.2 °F 30.26 in South 1.0 mph 2.0 mph 82% 0.00 in 18 W/m2
07:50 13.8 °F 9.3 °F 30.26 in South 2.0 mph 2.0 mph 82% 0.00 in 23 W/m2
07:56 13.9 °F 9.7 °F 30.27 in SW 2.0 mph 2.0 mph 83% 0.00 in 25 W/m2
08:02 14.1 °F 9.9 °F 30.27 in SW 2.0 mph 3.0 mph 83% 0.00 in 33 W/m2
08:08 14.1 °F 9.9 °F 30.27 in South 2.0 mph 5.0 mph 83% 0.00 in 49 W/m2
08:14 14.2 °F 10.0 °F 30.27 in South 3.0 mph 3.0 mph 83% 0.00 in 83 W/m2
08:20 14.4 °F 10.4 °F 30.27 in SSW 2.0 mph 5.0 mph 84% 0.00 in 62 W/m2
08:26 14.6 °F 10.6 °F 30.27 in SW 2.0 mph 5.0 mph 84% 0.00 in 91 W/m2
08:32 15.0 °F 11.0 °F 30.28 in SSW 2.0 mph 3.0 mph 84% 0.00 in 130 W/m2
08:38 15.4 °F 11.4 °F 30.27 in SW 2.0 mph 4.0 mph 84% 0.00 in 114 W/m2
08:44 15.5 °F 11.5 °F 30.27 in SSW 3.0 mph 5.0 mph 84% 0.00 in 113 W/m2
08:50 15.5 °F 11.5 °F 30.27 in SSW 3.0 mph 4.0 mph 84% 0.00 in 125 W/m2
08:56 15.7 °F 11.5 °F 30.27 in SW 3.0 mph 4.0 mph 83% 0.00 in 127 W/m2
09:02 16.1 °F 11.6 °F 30.28 in WSW 3.0 mph 3.0 mph 82% 0.00 in 132 W/m2
09:08 16.5 °F 11.4 °F 30.27 in SW 4.0 mph 4.0 mph 80% 0.00 in 221 W/m2
09:16 17.0 °F 9.8 °F 30.28 in SW 5.0 mph 11.0 mph 73% 0.00 in 144 W/m2
09:22 17.2 °F 9.4 °F 30.28 in WSW 5.0 mph 7.0 mph 71% 0.00 in 230 W/m2
09:28 17.7 °F 8.9 °F 30.28 in SW 5.0 mph 10.0 mph 68% 0.00 in 281 W/m2
09:34 18.0 °F 8.9 °F 30.28 in West 5.0 mph 6.0 mph 67% 0.00 in 250 W/m2
09:40 18.3 °F 8.5 °F 30.28 in WSW 4.0 mph 5.0 mph 65% 0.00 in 329 W/m2
09:46 19.0 °F 8.5 °F 30.28 in SW 4.0 mph 5.0 mph 63% 0.00 in 353 W/m2
09:52 19.2 °F 7.9 °F 30.28 in WSW 4.0 mph 4.0 mph 61% 0.00 in 376 W/m2
09:58 19.7 °F 8.4 °F 30.28 in SW 4.0 mph 4.0 mph 61% 0.00 in 425 W/m2
10:04 19.7 °F 8.0 °F 30.27 in WSW 5.0 mph 9.0 mph 60% 0.00 in 468 W/m2
10:10 20.1 °F 8.4 °F 30.28 in WSW 6.0 mph 7.0 mph 60% 0.00 in 540 W/m2
10:16 20.3 °F 8.6 °F 30.28 in WSW 6.0 mph 7.0 mph 60% 0.00 in 476 W/m2
10:22 20.6 °F 8.1 °F 30.28 in West 5.0 mph 9.0 mph 58% 0.00 in 497 W/m2
10:28 20.4 °F 8.0 °F 30.28 in WSW 5.0 mph 9.0 mph 58% 0.00 in 258 W/m2
10:34 19.5 °F 7.5 °F 30.28 in West 6.0 mph 8.0 mph 59% 0.00 in 183 W/m2
10:40 19.5 °F 7.9 °F 30.28 in West 6.0 mph 6.0 mph 60% 0.00 in 130 W/m2
10:46 20.2 °F 8.1 °F 30.28 in WSW 5.0 mph 6.0 mph 59% 0.00 in 116 W/m2
10:52 20.5 °F 8.4 °F 30.27 in SW 4.0 mph 4.0 mph 59% 0.00 in 104 W/m2
10:58 20.8 °F 8.7 °F 30.27 in West 5.0 mph 10.0 mph 59% 0.00 in 603 W/m2
11:04 21.3 °F 8.8 °F 30.26 in WSW 5.0 mph 5.0 mph 58% 0.00 in 543 W/m2
11:10 21.1 °F 8.2 °F 30.26 in SSW 5.0 mph 5.0 mph 57% 0.00 in 582 W/m2
11:16 21.5 °F 8.6 °F 30.26 in WSW 6.0 mph 6.0 mph 57% 0.00 in 601 W/m2
11:22 21.3 °F 8.4 °F 30.26 in West 5.0 mph 5.0 mph 57% 0.00 in 441 W/m2
11:28 21.8 °F 8.1 °F 30.26 in WSW 6.0 mph 9.0 mph 55% 0.00 in 584 W/m2
11:34 22.3 °F 8.6 °F 30.25 in West 6.0 mph 6.0 mph 55% 0.00 in 587 W/m2
11:40 22.5 °F 8.7 °F 30.25 in West 5.0 mph 5.0 mph 55% 0.00 in 531 W/m2
11:46 23.4 °F 9.2 °F 30.25 in SW 4.0 mph 6.0 mph 54% 0.00 in 629 W/m2
11:52 23.0 °F 8.8 °F 30.25 in WSW 4.0 mph 8.0 mph 54% 0.00 in 717 W/m2
11:58 23.6 °F 9.8 °F 30.25 in WSW 5.0 mph 8.0 mph 55% 0.00 in 647 W/m2
12:04 24.1 °F 9.4 °F 30.25 in WSW 4.0 mph 5.0 mph 53% 0.00 in 733 W/m2
12:10 23.3 °F 8.7 °F 30.25 in SSW 6.0 mph 6.0 mph 53% 0.00 in 278 W/m2
12:16 22.9 °F 9.1 °F 30.25 in SSE 6.0 mph 8.0 mph 55% 0.00 in 325 W/m2
12:22 23.3 °F 9.1 °F 30.24 in SW 6.0 mph 6.0 mph 54% 0.00 in 715 W/m2
12:28 24.1 °F 9.0 °F 30.23 in WNW 4.0 mph 13.0 mph 52% 0.00 in 636 W/m2
12:34 23.4 °F 8.3 °F 30.23 in SSW 5.0 mph 7.0 mph 52% 0.00 in 232 W/m2
12:40 23.0 °F 8.4 °F 30.23 in WNW 6.0 mph 6.0 mph 53% 0.00 in 339 W/m2
12:46 23.5 °F 8.9 °F 30.22 in SW 5.0 mph 7.0 mph 53% 0.00 in 269 W/m2
12:52 24.1 °F 9.8 °F 30.22 in WSW 4.0 mph 9.0 mph 54% 0.00 in 670 W/m2
12:58 23.3 °F 8.7 °F 30.22 in West 4.0 mph 9.0 mph 53% 0.00 in 225 W/m2
13:04 22.8 °F 8.6 °F 30.22 in West 5.0 mph 5.0 mph 54% 0.00 in 287 W/m2
13:10 22.9 °F 8.7 °F 30.22 in WSW 4.0 mph 5.0 mph 54% 0.00 in 199 W/m2
13:16 22.8 °F 9.0 °F 30.22 in West 5.0 mph 5.0 mph 55% 0.00 in 202 W/m2
13:22 22.8 °F 9.0 °F 30.21 in WSW 5.0 mph 5.0 mph 55% 0.00 in 199 W/m2
13:28 22.9 °F 8.7 °F 30.21 in SSW 4.0 mph 9.0 mph 54% 0.00 in 188 W/m2
13:34 23.0 °F 8.8 °F 30.21 in SSW 4.0 mph 5.0 mph 54% 0.00 in 160 W/m2
13:40 23.2 °F 9.0 °F 30.21 in SW 3.0 mph 3.0 mph 54% 0.00 in 193 W/m2
13:46 23.4 °F 9.2 °F 30.21 in WSW 3.0 mph 6.0 mph 54% 0.00 in 199 W/m2
13:52 23.5 °F 8.9 °F 30.20 in SSW 5.0 mph 5.0 mph 53% 0.00 in 239 W/m2
13:58 23.6 °F 8.9 °F 30.20 in WSW 5.0 mph 5.0 mph 53% 0.00 in 239 W/m2
14:04 23.9 °F 9.6 °F 30.20 in SW 5.0 mph 5.0 mph 54% 0.00 in 330 W/m2
14:10 23.8 °F 9.1 °F 30.21 in South 5.0 mph 6.0 mph 53% 0.00 in 206 W/m2
14:16 23.5 °F 9.7 °F 30.20 in South 6.0 mph 11.0 mph 55% 0.00 in 290 W/m2
14:22 23.7 °F 9.9 °F 30.20 in SSW 5.0 mph 6.0 mph 55% 0.00 in 211 W/m2
14:28 24.1 °F 9.8 °F 30.20 in SW 3.0 mph 6.0 mph 54% 0.00 in 188 W/m2
14:34 24.0 °F 9.3 °F 30.20 in SW 4.0 mph 8.0 mph 53% 0.00 in 179 W/m2
14:40 24.1 °F 9.4 °F 30.20 in South 5.0 mph 5.0 mph 53% 0.00 in 195 W/m2
14:46 24.2 °F 9.1 °F 30.20 in SSW 5.0 mph 5.0 mph 52% 0.00 in 190 W/m2
14:52 24.6 °F 9.0 °F 30.20 in WSW 4.0 mph 4.0 mph 51% 0.00 in 167 W/m2
14:58 24.7 °F 9.1 °F 30.19 in SW 4.0 mph 4.0 mph 51% 0.00 in 158 W/m2
15:04 25.0 °F 9.4 °F 30.19 in SSW 3.0 mph 7.0 mph 51% 0.00 in 163 W/m2
15:10 24.9 °F 8.4 °F 30.19 in SSW 4.0 mph 5.0 mph 49% 0.00 in 151 W/m2
15:16 24.9 °F 8.0 °F 30.18 in WSW 5.0 mph 6.0 mph 48% 0.00 in 139 W/m2
15:22 25.0 °F 8.5 °F 30.18 in SSW 4.0 mph 6.0 mph 49% 0.00 in 116 W/m2
15:32 25.1 °F 7.7 °F 30.18 in SW 3.0 mph 3.0 mph 47% 0.00 in 81 W/m2
15:38 25.1 °F 7.7 °F 30.18 in South 3.0 mph 5.0 mph 47% 0.00 in 72 W/m2
15:43 25.1 °F 7.7 °F 30.18 in SSW 4.0 mph 4.0 mph 47% 0.00 in 58 W/m2
15:49 25.1 °F 8.1 °F 30.18 in SSW 4.0 mph 4.0 mph 48% 0.00 in 53 W/m2
15:55 25.1 °F 8.1 °F 30.18 in SW 4.0 mph 7.0 mph 48% 0.00 in 46 W/m2
16:02 25.1 °F 8.6 °F 30.18 in SSW 3.0 mph 3.0 mph 49% 0.00 in 44 W/m2
16:08 25.2 °F 8.7 °F 30.18 in SSW 3.0 mph 4.0 mph 49% 0.00 in 46 W/m2
16:13 25.3 °F 9.2 °F 30.18 in South 4.0 mph 4.0 mph 50% 0.00 in 44 W/m2
16:19 25.3 °F 9.7 °F 30.17 in SW 2.0 mph 4.0 mph 51% 0.00 in 40 W/m2
16:25 25.3 °F 9.2 °F 30.17 in South 1.0 mph 4.0 mph 50% 0.00 in 37 W/m2
16:32 25.4 °F 9.3 °F 30.17 in South 3.0 mph 3.0 mph 50% 0.00 in 26 W/m2
16:38 25.4 °F 9.8 °F 30.17 in SSW 3.0 mph 4.0 mph 51% 0.00 in 23 W/m2
16:43 25.4 °F 9.3 °F 30.17 in SSW 2.0 mph 2.0 mph 50% 0.00 in 19 W/m2
16:49 25.4 °F 9.8 °F 30.17 in SSW 1.0 mph 1.0 mph 51% 0.00 in 14 W/m2
16:55 25.4 °F 9.8 °F 30.16 in SSW 1.0 mph 3.0 mph 51% 0.00 in 12 W/m2
17:02 25.4 °F 9.8 °F 30.16 in SSW 1.0 mph 1.0 mph 51% 0.00 in 9 W/m2
17:08 25.3 °F 9.7 °F 30.16 in SSW 1.0 mph 2.0 mph 51% 0.00 in 7 W/m2
17:13 25.3 °F 10.1 °F 30.15 in SSW 1.0 mph 2.0 mph 52% 0.00 in 5 W/m2
17:19 25.1 °F 10.3 °F 30.15 in Calm     53% 0.00 in 0 W/m2
17:25 25.0 °F 10.3 °F 30.15 in Calm     53% 0.00 in 0 W/m2
17:31 24.8 °F 10.9 °F 30.15 in Calm     55% 0.00 in 0 W/m2
17:38 24.4 °F 10.9 °F 30.15 in Calm     56% 0.00 in 0 W/m2
17:43 24.0 °F 11.3 °F 30.15 in Calm     58% 0.00 in 0 W/m2
17:49 23.7 °F 11.1 °F 30.15 in Calm     58% 0.00 in 0 W/m2
17:55 23.3 °F 11.1 °F 30.15 in Calm     59% 0.00 in 0 W/m2
18:02 22.9 °F 11.1 °F 30.15 in Calm     60% 0.00 in 0 W/m2
18:08 22.8 °F 10.6 °F 30.15 in Calm   1.0 mph 59% 0.00 in 0 W/m2
18:13 22.7 °F 11.3 °F 30.14 in Calm     61% 0.00 in 0 W/m2
18:19 22.4 °F 11.3 °F 30.14 in Calm     62% 0.00 in 0 W/m2
18:25 22.2 °F 11.9 °F 30.13 in Calm     64% 0.00 in 0 W/m2
18:32 21.9 °F 11.9 °F 30.13 in Calm     65% 0.00 in 0 W/m2
18:38 21.8 °F 11.8 °F 30.13 in Calm     65% 0.00 in 0 W/m2
18:43 21.6 °F 11.6 °F 30.13 in Calm     65% 0.00 in 0 W/m2
18:49 21.3 °F 11.7 °F 30.13 in Calm     66% 0.00 in 0 W/m2
18:55 21.1 °F 11.8 °F 30.13 in Calm     67% 0.00 in 0 W/m2
19:02 21.0 °F 11.8 °F 30.13 in Calm     67% 0.00 in 0 W/m2
19:08 21.0 °F 12.1 °F 30.13 in Calm     68% 0.00 in 0 W/m2
19:13 20.9 °F 12.0 °F 30.13 in Calm     68% 0.00 in 0 W/m2
19:19 20.8 °F 11.9 °F 30.13 in Calm     68% 0.00 in 0 W/m2
19:25 20.6 °F 12.0 °F 30.13 in Calm     69% 0.00 in 0 W/m2
19:32 20.4 °F 12.2 °F 30.13 in Calm     70% 0.00 in 0 W/m2
19:38 20.5 °F 11.9 °F 30.12 in Calm     69% 0.00 in 0 W/m2
19:43 20.7 °F 11.8 °F 30.12 in Calm     68% 0.00 in 0 W/m2
19:49 20.9 °F 12.0 °F 30.12 in Calm     68% 0.00 in 0 W/m2
19:55 21.0 °F 11.8 °F 30.12 in Calm     67% 0.00 in 0 W/m2
20:02 21.5 °F 11.5 °F 30.11 in Calm   2.0 mph 65% 0.00 in 0 W/m2
20:08 21.6 °F 11.6 °F 30.12 in SSW 1.0 mph 2.0 mph 65% 0.00 in 0 W/m2
20:13 22.0 °F 11.7 °F 30.11 in Calm   1.0 mph 64% 0.00 in 0 W/m2
20:19 22.8 °F 12.1 °F 30.11 in Calm     63% 0.00 in 0 W/m2
20:25 23.0 °F 11.9 °F 30.11 in SSW 1.0 mph 2.0 mph 62% 0.00 in 0 W/m2
20:32 23.2 °F 11.7 °F 30.11 in Calm   2.0 mph 61% 0.00 in 0 W/m2
20:38 23.7 °F 11.8 °F 30.10 in SSW 1.0 mph 2.0 mph 60% 0.00 in 0 W/m2
20:43 24.7 °F 12.4 °F 30.10 in South 2.0 mph 2.0 mph 59% 0.00 in 0 W/m2
20:49 25.4 °F 12.7 °F 30.10 in South 2.0 mph 5.0 mph 58% 0.00 in 0 W/m2
20:55 25.9 °F 13.1 °F 30.10 in SSE 2.0 mph 5.0 mph 58% 0.00 in 0 W/m2
21:02 26.3 °F 13.1 °F 30.10 in SSE 3.0 mph 3.0 mph 57% 0.00 in 0 W/m2
21:08 26.5 °F 13.3 °F 30.09 in South 3.0 mph 3.0 mph 57% 0.00 in 0 W/m2
21:13 26.9 °F 13.3 °F 30.09 in SSW 3.0 mph 6.0 mph 56% 0.00 in 0 W/m2
21:19 27.3 °F 14.1 °F 30.09 in South 4.0 mph 4.0 mph 57% 0.00 in 0 W/m2
21:25 27.6 °F 14.3 °F 30.08 in South 5.0 mph 6.0 mph 57% 0.00 in 0 W/m2
21:32 27.8 °F 14.9 °F 30.08 in SSE 4.0 mph 5.0 mph 58% 0.00 in 0 W/m2
21:38 27.9 °F 15.4 °F 30.08 in South 4.0 mph 9.0 mph 59% 0.00 in 0 W/m2
21:43 28.1 °F 16.0 °F 30.08 in SSW 5.0 mph 5.0 mph 60% 0.00 in 0 W/m2
21:49 28.3 °F 16.2 °F 30.08 in SW 5.0 mph 5.0 mph 60% 0.00 in 0 W/m2
21:55 28.3 °F 16.6 °F 30.07 in South 5.0 mph 9.0 mph 61% 0.00 in 0 W/m2
22:02 28.5 °F 17.1 °F 30.08 in South 5.0 mph 6.0 mph 62% 0.00 in 0 W/m2
22:08 28.5 °F 17.9 °F 30.07 in South 5.0 mph 6.0 mph 64% 0.00 in 0 W/m2
22:13 28.5 °F 18.6 °F 30.07 in SSW 5.0 mph 8.0 mph 66% 0.00 in 0 W/m2
22:19 28.6 °F 18.7 °F 30.07 in South 4.0 mph 4.0 mph 66% 0.00 in 0 W/m2
22:25 29.0 °F 18.7 °F 30.07 in SW 5.0 mph 11.0 mph 65% 0.00 in 0 W/m2
22:32 29.4 °F 18.3 °F 30.07 in SSW 6.0 mph 9.0 mph 63% 0.00 in 0 W/m2
22:38 29.6 °F 18.5 °F 30.06 in South 6.0 mph 9.0 mph 63% 0.00 in 0 W/m2
22:43 29.5 °F 18.4 °F 30.06 in South 5.0 mph 6.0 mph 63% 0.00 in 0 W/m2
22:49 29.3 °F 17.9 °F 30.06 in SSE 5.0 mph 5.0 mph 62% 0.00 in 0 W/m2
22:55 29.1 °F 18.1 °F 30.05 in SSE 6.0 mph 11.0 mph 63% 0.00 in 0 W/m2
23:02 29.1 °F 18.1 °F 30.05 in SSE 6.0 mph 12.0 mph 63% 0.00 in 0 W/m2
23:08 29.2 °F 17.8 °F 30.05 in SSW 6.0 mph 12.0 mph 62% 0.00 in 0 W/m2
23:13 29.2 °F 17.4 °F 30.05 in South 5.0 mph 7.0 mph 61% 0.00 in 0 W/m2
23:19 29.4 °F 16.8 °F 30.05 in South 4.0 mph 6.0 mph 59% 0.00 in 0 W/m2
23:25 29.7 °F 16.3 °F 30.05 in SW 6.0 mph 12.0 mph 57% 0.00 in 0 W/m2
23:31 29.8 °F 16.0 °F 30.04 in SSW 6.0 mph 6.0 mph 56% 0.00 in 0 W/m2
23:38 29.8 °F 16.0 °F 30.05 in SW 5.0 mph 6.0 mph 56% 0.00 in 0 W/m2
23:43 29.8 °F 16.0 °F 30.04 in SSW 4.0 mph 12.0 mph 56% 0.00 in 0 W/m2
23:49 29.9 °F 15.7 °F 30.05 in South 5.0 mph 11.0 mph 55% 0.00 in 0 W/m2
23:55 30.1 °F 15.4 °F 30.04 in South 5.0 mph 11.0 mph 54% 0.00 in 0 W/m2
Country Meadow, Clay, NY, USA
Compliments of Weather Underground - 2 mb